KDAB/DAB METAR and TAF weather

Enter ICAO airport designator
Station Type Date Time Source
KDAB METAR 2024/06/15 23:53 UTC NOAA

KDAB 152353Z 26005KT 10SM SCT020 BKN030 OVC090 27/23 A2998 RMK SLP153 T02720233 10322 20272 53008


Station Type Date Time Source
KDAB Decoded METAR 2024/06/15 23:53 UTC NOAA

DAYTONA BEACH INTERNATIONAL, FL, United States (KDAB) 29-10N 81-04W 9M
Jun 15, 2024 - 07:53 PM EDT / 2024.06.15 2353 UTC
Wind: from the W (260 degrees) at 6 MPH (5 KT):0
Visibility: 10 mile(s):0
Sky conditions: overcast
Temperature: 81.0 F (27.2 C)
Dew Point: 73.9 F (23.3 C)
Relative Humidity: 79%
Pressure (altimeter): 29.98 in. Hg (1015 hPa)
Pressure tendency: 0.02 inches (0.8 hPa) higher than three hours ago
ob: KDAB 152353Z 26005KT 10SM SCT020 BKN030 OVC090 27/23 A2998 RMK SLP153 T02720233 10322 20272 53008
cycle: 0

Station Type Date Time Source
KDAB TAF 2024/06/16 00:08 UTC NOAA